createdAt,value
2023-02-19T00:01:56.379Z,6.86
2023-02-19T00:12:03.791Z,7.04
2023-02-19T00:14:32.384Z,7.05
2023-02-19T00:17:00.682Z,7.06
2023-02-19T00:19:30.389Z,7.06
2023-02-19T00:22:00.031Z,7.07
2023-02-19T00:24:28.569Z,7.09
2023-02-19T00:26:59.836Z,7.11
2023-02-19T00:29:28.005Z,7.12
2023-02-19T00:31:56.437Z,7.14
2023-02-19T00:34:25.609Z,7.15
2023-02-19T00:36:53.767Z,7.15
2023-02-19T00:41:00.933Z,7.17
2023-02-19T00:43:31.800Z,7.14
2023-02-19T00:46:00.298Z,7.15
2023-02-19T00:48:28.737Z,7.13
2023-02-19T00:50:57.334Z,7.12
2023-02-19T00:53:25.507Z,7.12
2023-02-19T00:55:54.090Z,7.10
2023-02-19T00:58:22.380Z,7.10
2023-02-19T01:00:50.877Z,7.08
2023-02-19T01:03:19.591Z,7.06
2023-02-19T01:05:52.464Z,7.03
2023-02-19T01:08:21.350Z,7.01
2023-02-19T01:10:49.440Z,7.00
2023-02-19T01:13:17.806Z,6.99
2023-02-19T01:15:46.372Z,6.98
2023-02-19T01:18:16.026Z,6.95
2023-02-19T01:20:45.022Z,6.91
2023-02-19T01:23:16.999Z,6.85
2023-02-19T01:25:45.076Z,6.79
2023-02-19T01:28:13.467Z,6.73
2023-02-19T01:30:41.661Z,6.67
2023-02-19T01:33:10.237Z,6.61
2023-02-19T01:35:38.840Z,6.55
2023-02-19T01:38:09.965Z,6.49
2023-02-19T01:40:39.706Z,6.44
2023-02-19T01:43:15.171Z,6.40
2023-02-19T01:45:44.428Z,6.35
2023-02-19T01:48:13.990Z,6.31
2023-02-19T01:50:51.745Z,6.27
2023-02-19T01:53:23.545Z,6.21
2023-02-19T01:55:53.154Z,6.17
2023-02-19T01:58:22.206Z,6.13
2023-02-19T02:00:51.905Z,6.08
2023-02-19T02:03:20.423Z,6.04
2023-02-19T02:06:23.234Z,6.00
2023-02-19T02:09:12.042Z,5.96
2023-02-19T02:11:42.819Z,5.93
2023-02-19T02:14:10.896Z,5.90
2023-02-19T02:16:45.132Z,5.88
2023-02-19T02:19:52.262Z,5.86
2023-02-19T02:22:28.544Z,5.84
2023-02-19T02:25:29.201Z,5.80
2023-02-19T02:28:02.319Z,5.77
2023-02-19T02:30:39.982Z,5.74
2023-02-19T02:33:29.529Z,5.71
2023-02-19T02:36:22.205Z,5.69
2023-02-19T02:38:52.914Z,5.66
2023-02-19T02:41:21.281Z,5.63
2023-02-19T02:43:49.640Z,5.59
2023-02-19T02:46:20.463Z,5.57
2023-02-19T02:48:53.983Z,5.56
2023-02-19T02:51:40.798Z,5.54
2023-02-19T02:54:45.666Z,5.52
2023-02-19T02:57:15.076Z,5.51
2023-02-19T02:59:53.004Z,5.49
2023-02-19T03:02:24.526Z,5.46
2023-02-19T03:05:30.309Z,5.42
2023-02-19T03:08:14.677Z,5.39
2023-02-19T03:10:49.257Z,5.36
2023-02-19T03:13:39.806Z,5.34
2023-02-19T03:16:35.946Z,5.32
2023-02-19T03:19:19.775Z,5.31
2023-02-19T03:22:10.361Z,5.29
2023-02-19T03:25:07.993Z,5.28
2023-02-19T03:27:37.610Z,5.27
2023-02-19T03:30:13.020Z,5.27
2023-02-19T03:33:11.049Z,5.27
2023-02-19T03:35:47.787Z,5.28
2023-02-19T03:38:40.090Z,5.28
2023-02-19T03:41:21.317Z,5.27
2023-02-19T03:43:54.048Z,5.27
2023-02-19T03:46:23.939Z,5.25
2023-02-19T03:48:54.711Z,5.23
2023-02-19T03:51:42.043Z,5.21
2023-02-19T03:54:18.170Z,5.21
2023-02-19T03:56:52.113Z,5.20
2023-02-19T03:59:38.447Z,5.20
2023-02-19T04:02:24.686Z,5.21
2023-02-19T04:05:01.305Z,5.20
2023-02-19T04:07:32.804Z,5.20
2023-02-19T04:10:01.088Z,5.22
2023-02-19T04:12:32.562Z,5.21
2023-02-19T04:15:07.386Z,5.21
2023-02-19T04:17:44.352Z,5.19
2023-02-19T04:20:13.539Z,5.19
2023-02-19T04:22:41.721Z,5.20
2023-02-19T04:25:09.998Z,5.19
2023-02-19T04:27:39.290Z,5.18
2023-02-19T04:30:08.867Z,5.15
2023-02-19T04:32:37.218Z,5.13
2023-02-19T04:35:06.640Z,5.12
2023-02-19T04:37:36.200Z,5.09
2023-02-19T04:40:04.987Z,5.07
2023-02-19T04:42:33.273Z,5.06
2023-02-19T04:45:01.557Z,5.07
2023-02-19T04:47:32.351Z,5.08
2023-02-19T04:50:00.712Z,5.10
2023-02-19T04:52:30.060Z,5.10
2023-02-19T04:54:58.352Z,5.12
2023-02-19T04:57:26.635Z,5.13
2023-02-19T04:59:54.822Z,5.15
2023-02-19T05:02:23.305Z,5.16
2023-02-19T05:04:52.290Z,5.16
2023-02-19T05:07:20.550Z,5.17
2023-02-19T05:09:50.149Z,5.18
2023-02-19T05:12:18.242Z,5.19
2023-02-19T05:14:47.094Z,5.20
2023-02-19T05:17:15.908Z,5.20
2023-02-19T05:19:46.605Z,5.19
2023-02-19T05:22:14.832Z,5.20
2023-02-19T05:24:43.142Z,5.21
2023-02-19T05:27:11.444Z,5.22
2023-02-19T05:29:39.641Z,5.22
2023-02-19T05:32:08.431Z,5.22
2023-02-19T05:34:37.344Z,5.21
2023-02-19T05:37:05.501Z,5.20
2023-02-19T05:39:34.039Z,5.18
2023-02-19T05:42:02.148Z,5.15
2023-02-19T05:44:32.638Z,5.15
2023-02-19T05:47:00.910Z,5.14
2023-02-19T05:49:29.113Z,5.15
2023-02-19T05:51:57.439Z,5.15
2023-02-19T05:54:31.183Z,5.15
2023-02-19T05:56:59.525Z,5.16
2023-02-19T05:59:27.826Z,5.18
2023-02-19T06:01:58.491Z,5.20
2023-02-19T06:04:27.077Z,5.22
2023-02-19T06:06:55.197Z,5.22
2023-02-19T06:09:23.735Z,5.23
2023-02-19T06:11:51.877Z,5.24
2023-02-19T06:14:21.051Z,5.24
2023-02-19T06:16:49.791Z,5.24
2023-02-19T06:19:19.707Z,5.23
2023-02-19T06:21:52.125Z,5.22
2023-02-19T06:24:20.728Z,5.18
2023-02-19T06:26:48.986Z,5.15
2023-02-19T06:29:17.341Z,5.10
2023-02-19T06:31:46.258Z,5.08
2023-02-19T06:34:14.407Z,5.04
2023-02-19T06:36:42.492Z,5.02
2023-02-19T06:39:10.838Z,5.01
2023-02-19T06:41:39.220Z,4.98
2023-02-19T06:44:12.055Z,4.97
2023-02-19T06:46:42.654Z,4.99
2023-02-19T06:49:10.885Z,5.00
2023-02-19T06:51:39.301Z,5.01
2023-02-19T06:54:07.519Z,5.02
2023-02-19T06:56:39.738Z,5.06
2023-02-19T06:59:10.417Z,5.09
2023-02-19T07:01:39.017Z,5.12
2023-02-19T07:04:07.731Z,5.17
2023-02-19T07:06:36.729Z,5.18
2023-02-19T07:09:06.148Z,5.19
2023-02-19T07:11:35.911Z,5.22
2023-02-19T07:14:07.672Z,5.26
2023-02-19T07:16:39.068Z,5.30
2023-02-19T07:19:07.673Z,5.34
2023-02-19T07:21:38.075Z,5.37
2023-02-19T07:24:07.004Z,5.39
2023-02-19T07:26:35.504Z,5.41
2023-02-19T07:29:04.058Z,5.42
2023-02-19T07:31:32.360Z,5.43
2023-02-19T07:34:00.674Z,5.44
2023-02-19T07:36:29.528Z,5.46
2023-02-19T07:38:59.032Z,5.48
2023-02-19T07:41:28.318Z,5.52
2023-02-19T07:43:59.192Z,5.57
2023-02-19T07:46:27.906Z,5.62
2023-02-19T07:48:59.655Z,5.69
2023-02-19T07:51:30.046Z,5.74
2023-02-19T07:54:01.455Z,5.78
2023-02-19T07:56:30.495Z,5.78
2023-02-19T07:59:00.391Z,5.81
2023-02-19T08:01:47.919Z,5.84
2023-02-19T08:04:16.629Z,5.90
2023-02-19T08:06:45.019Z,5.97
2023-02-19T08:09:13.078Z,6.05
2023-02-19T08:12:00.924Z,6.10
2023-02-19T08:14:29.916Z,6.13
2023-02-19T08:16:58.216Z,6.12
2023-02-19T08:19:26.469Z,6.11
2023-02-19T08:21:57.358Z,6.12
2023-02-19T08:24:28.901Z,6.15
2023-02-19T08:26:57.128Z,6.18
2023-02-19T08:29:25.984Z,6.24
2023-02-19T08:31:54.228Z,6.29
2023-02-19T08:34:22.691Z,6.35
2023-02-19T08:36:51.186Z,6.40
2023-02-19T08:39:20.994Z,6.45
2023-02-19T08:41:51.089Z,6.48
2023-02-19T08:44:19.174Z,6.52
2023-02-19T08:46:49.018Z,6.56
2023-02-19T08:49:17.319Z,6.63
2023-02-19T08:51:45.823Z,6.70
2023-02-19T08:54:14.124Z,6.76
2023-02-19T08:56:42.452Z,6.80
2023-02-19T08:59:11.040Z,6.82
2023-02-19T09:01:39.878Z,6.86
2023-02-19T09:04:11.702Z,6.90
2023-02-19T09:06:40.305Z,6.90
2023-02-19T09:09:13.079Z,6.87
2023-02-19T09:11:42.817Z,6.84
2023-02-19T09:14:12.079Z,6.83
2023-02-19T09:16:40.884Z,6.83
2023-02-19T09:19:16.252Z,6.79
2023-02-19T09:21:53.657Z,6.74
2023-02-19T09:24:25.250Z,6.73
2023-02-19T09:26:54.720Z,6.71
2023-02-19T09:29:25.050Z,6.66
2023-02-19T09:31:58.215Z,6.60
2023-02-19T09:34:27.286Z,6.51
2023-02-19T09:36:55.380Z,6.46
2023-02-19T09:39:23.497Z,6.46
2023-02-19T09:41:57.342Z,6.48
2023-02-19T09:44:31.231Z,6.55
2023-02-19T09:47:00.713Z,6.67
2023-02-19T09:49:35.406Z,6.81
2023-02-19T09:52:08.471Z,6.96
2023-02-19T09:54:36.757Z,7.09
2023-02-19T09:57:05.259Z,7.21
2023-02-19T09:59:41.263Z,7.36
2023-02-19T10:02:20.737Z,7.48
2023-02-19T10:04:49.362Z,7.62
2023-02-19T10:07:44.332Z,7.72
2023-02-19T10:10:12.464Z,7.80
2023-02-19T10:12:52.351Z,7.84
2023-02-19T10:15:31.618Z,7.90
2023-02-19T10:17:59.909Z,7.97
2023-02-19T10:20:28.531Z,8.05
2023-02-19T10:23:02.880Z,8.12
2023-02-19T10:25:31.418Z,8.16
2023-02-19T10:28:00.262Z,8.18
2023-02-19T10:30:31.313Z,8.20
2023-02-19T10:33:04.811Z,8.19
2023-02-19T10:35:36.385Z,8.14
2023-02-19T10:38:06.820Z,8.07
2023-02-19T10:40:35.597Z,8.04
2023-02-19T10:43:04.315Z,8.01
2023-02-19T10:46:07.796Z,8.01
2023-02-19T10:48:42.140Z,8.00
2023-02-19T10:51:11.689Z,7.97
2023-02-19T10:53:47.039Z,7.95
2023-02-19T10:56:16.186Z,7.97
2023-02-19T11:06:26.256Z,8.00
2023-02-19T11:08:56.624Z,7.96
2023-02-19T11:11:36.070Z,7.93
2023-02-19T11:14:13.766Z,7.89
2023-02-19T11:16:52.709Z,7.86
2023-02-19T11:19:23.787Z,7.83
2023-02-19T11:21:54.863Z,7.82
2023-02-19T11:24:35.328Z,7.79
2023-02-19T11:27:05.132Z,7.79
2023-02-19T11:29:34.990Z,7.77
2023-02-19T11:32:23.553Z,7.77
2023-02-19T11:34:53.212Z,7.76
2023-02-19T11:37:21.904Z,7.75
2023-02-19T11:39:50.851Z,7.73
2023-02-19T11:42:40.907Z,7.70
2023-02-19T11:45:24.373Z,7.62
2023-02-19T11:48:10.810Z,7.52
2023-02-19T11:51:16.065Z,7.41
2023-02-19T11:54:15.615Z,7.30
2023-02-19T11:56:50.832Z,7.23
2023-02-19T11:59:57.723Z,7.17
2023-02-19T12:02:57.452Z,7.14
2023-02-19T12:05:50.097Z,7.19
2023-02-19T12:08:43.003Z,7.27
2023-02-19T12:11:30.884Z,7.32
2023-02-19T12:14:12.329Z,7.29
2023-02-19T12:17:05.363Z,7.23
2023-02-19T12:19:42.294Z,7.16
2023-02-19T12:22:30.520Z,7.11
2023-02-19T12:25:18.569Z,7.08
2023-02-19T12:28:21.793Z,7.05
2023-02-19T12:30:59.812Z,7.05
2023-02-19T12:33:59.705Z,7.08
2023-02-19T12:36:50.829Z,7.11
2023-02-19T12:39:43.100Z,7.12
2023-02-19T12:42:54.745Z,7.10
2023-02-19T12:46:01.486Z,6.98
2023-02-19T12:48:32.024Z,6.94
2023-02-19T12:51:07.294Z,6.94
2023-02-19T12:53:45.827Z,6.92
2023-02-19T12:56:21.247Z,6.88
2023-02-19T13:00:07.595Z,6.85
2023-02-19T13:02:41.814Z,6.75
2023-02-19T13:05:20.946Z,6.67
2023-02-19T13:07:57.688Z,6.61
2023-02-19T13:10:34.202Z,6.57
2023-02-19T13:13:26.724Z,6.55
2023-02-19T13:15:57.585Z,6.56
2023-02-19T13:18:29.128Z,6.60
2023-02-19T13:20:58.037Z,6.67
2023-02-19T13:23:50.483Z,6.74
2023-02-19T13:26:55.847Z,6.79
2023-02-19T13:29:39.576Z,6.87
2023-02-19T13:32:23.645Z,6.91
2023-02-19T13:34:51.918Z,6.91
2023-02-19T13:37:21.532Z,6.86
2023-02-19T13:39:52.339Z,6.82
2023-02-19T13:42:27.281Z,6.80
2023-02-19T13:44:58.062Z,6.80
2023-02-19T13:47:57.445Z,6.79
2023-02-19T13:50:30.495Z,6.78
2023-02-19T13:52:59.871Z,6.77
2023-02-19T13:55:44.325Z,6.75
2023-02-19T13:58:34.958Z,6.71
2023-02-19T14:01:10.291Z,6.66
2023-02-19T14:03:51.132Z,6.61
2023-02-19T14:06:19.690Z,6.57
2023-02-19T14:08:57.446Z,6.53
2023-02-19T14:11:41.638Z,6.49
2023-02-19T14:14:38.012Z,6.45
2023-02-19T14:17:08.993Z,6.36
2023-02-19T14:19:41.621Z,6.28
2023-02-19T14:22:56.991Z,6.16
2023-02-19T14:25:28.667Z,5.94
2023-02-19T14:28:22.423Z,5.75
2023-02-19T14:30:51.821Z,5.51
2023-02-19T14:33:25.587Z,5.31
2023-02-19T14:36:06.469Z,5.13
2023-02-19T14:38:42.006Z,4.98
2023-02-19T14:41:11.236Z,4.86
2023-02-19T14:43:39.937Z,4.75
2023-02-19T14:46:41.618Z,4.67
2023-02-19T14:49:17.961Z,4.55
2023-02-19T14:51:51.384Z,4.47
2023-02-19T14:54:41.516Z,4.35
2023-02-19T14:57:17.914Z,4.22
2023-02-19T14:59:58.723Z,4.12
2023-02-19T15:02:28.306Z,4.03
2023-02-19T15:04:56.810Z,3.96
2023-02-19T15:07:32.751Z,3.91
2023-02-19T15:10:04.898Z,3.86
2023-02-19T15:12:53.791Z,3.82
2023-02-19T15:15:29.145Z,3.79
2023-02-19T15:17:57.265Z,3.78
2023-02-19T15:20:28.077Z,3.77
2023-02-19T15:22:57.169Z,3.75
2023-02-19T15:25:30.775Z,3.73
2023-02-19T15:28:25.224Z,3.69
2023-02-19T15:30:57.705Z,3.63
2023-02-19T15:33:27.523Z,3.58
2023-02-19T15:35:57.906Z,3.53
2023-02-19T15:38:26.208Z,3.48
2023-02-19T15:40:56.052Z,3.44
2023-02-19T15:43:30.736Z,3.41
2023-02-19T15:46:04.180Z,3.37
2023-02-19T15:48:43.006Z,3.34
2023-02-19T15:51:18.291Z,3.28
2023-02-19T15:53:49.227Z,3.21
2023-02-19T15:56:30.463Z,3.13
2023-02-19T15:59:22.659Z,3.06
2023-02-19T16:01:51.069Z,3.01
2023-02-19T16:04:19.738Z,2.98
2023-02-19T16:07:01.844Z,2.95
2023-02-19T16:09:40.031Z,2.91
2023-02-19T16:12:24.169Z,2.86
2023-02-19T16:14:57.396Z,2.83
2023-02-19T16:17:28.120Z,2.79
2023-02-19T16:20:01.459Z,2.75
2023-02-19T16:22:35.305Z,2.72
2023-02-19T16:25:05.608Z,2.71
2023-02-19T16:27:38.635Z,2.71
2023-02-19T16:30:28.961Z,2.70
2023-02-19T16:33:21.807Z,2.68
2023-02-19T16:35:52.313Z,2.66
2023-02-19T16:38:21.471Z,2.64
2023-02-19T16:40:50.963Z,2.63
2023-02-19T16:43:25.066Z,2.61
2023-02-19T16:45:53.479Z,2.60
2023-02-19T16:48:23.162Z,2.60
2023-02-19T16:50:53.138Z,2.58
2023-02-19T16:53:25.248Z,2.58
2023-02-19T16:55:53.904Z,2.58
2023-02-19T16:58:23.503Z,2.57
2023-02-19T17:00:52.744Z,2.57
2023-02-19T17:03:23.486Z,2.57
2023-02-19T17:05:54.136Z,2.58
2023-02-19T17:08:36.304Z,2.59
2023-02-19T17:11:14.022Z,2.59
2023-02-19T17:13:45.712Z,2.55
2023-02-19T17:16:18.443Z,2.50
2023-02-19T17:18:49.229Z,2.45
2023-02-19T17:21:19.990Z,2.40
2023-02-19T17:23:49.099Z,2.37
2023-02-19T17:26:20.850Z,2.35
2023-02-19T17:28:49.225Z,2.32
2023-02-19T17:31:17.908Z,2.30
2023-02-19T17:33:47.032Z,2.28
2023-02-19T17:36:27.089Z,2.27
2023-02-19T17:38:55.622Z,2.27
2023-02-19T17:41:24.514Z,2.28
2023-02-19T17:43:53.503Z,2.27
2023-02-19T17:46:23.549Z,2.27
2023-02-19T17:48:52.716Z,2.28
2023-02-19T17:51:21.238Z,2.28
2023-02-19T17:53:49.550Z,2.30
2023-02-19T17:56:21.959Z,2.30
2023-02-19T17:58:50.655Z,2.30
2023-02-19T18:01:19.293Z,2.29
2023-02-19T18:03:47.884Z,2.30
2023-02-19T18:06:16.400Z,2.29
2023-02-19T18:08:49.458Z,2.29
2023-02-19T18:11:18.052Z,2.29
2023-02-19T18:13:49.618Z,2.28
2023-02-19T18:16:18.497Z,2.28
2023-02-19T18:18:46.877Z,2.28
2023-02-19T18:21:15.654Z,2.28
2023-02-19T18:23:44.253Z,2.28
2023-02-19T18:26:13.847Z,2.29
2023-02-19T18:28:42.623Z,2.31
2023-02-19T18:31:11.730Z,2.32
2023-02-19T18:33:40.266Z,2.33
2023-02-19T18:36:10.988Z,2.35
2023-02-19T18:38:40.766Z,2.36
2023-02-19T18:41:13.701Z,2.38
2023-02-19T18:43:44.837Z,2.40
2023-02-19T18:46:13.507Z,2.41
2023-02-19T18:48:41.758Z,2.42
2023-02-19T18:51:11.225Z,2.43
2023-02-19T18:53:44.492Z,2.42
2023-02-19T18:56:13.451Z,2.42
2023-02-19T18:58:42.053Z,2.42
2023-02-19T19:01:13.035Z,2.40
2023-02-19T19:03:41.706Z,2.40
2023-02-19T19:06:10.288Z,2.41
2023-02-19T19:08:38.597Z,2.41
2023-02-19T19:11:07.736Z,2.41
2023-02-19T19:13:37.328Z,2.41
2023-02-19T19:16:06.691Z,2.40
2023-02-19T19:18:38.491Z,2.41
2023-02-19T19:21:09.765Z,2.41
2023-02-19T19:23:39.026Z,2.41
2023-02-19T19:26:07.533Z,2.40
2023-02-19T19:28:38.212Z,2.39
2023-02-19T19:31:07.405Z,2.38
2023-02-19T19:33:37.245Z,2.36
2023-02-19T19:36:06.096Z,2.35
2023-02-19T19:38:34.407Z,2.33
2023-02-19T19:41:02.766Z,2.33
2023-02-19T19:43:33.021Z,2.32
2023-02-19T19:46:03.735Z,2.31
2023-02-19T19:48:33.946Z,2.30
2023-02-19T19:51:03.333Z,2.28
2023-02-19T19:53:32.063Z,2.26
2023-02-19T19:56:00.744Z,2.24
2023-02-19T19:58:29.948Z,2.23
2023-02-19T20:01:01.809Z,2.21
2023-02-19T20:03:31.233Z,2.19
2023-02-19T20:06:01.099Z,2.18
2023-02-19T20:08:30.592Z,2.16
2023-02-19T20:10:58.630Z,2.17
2023-02-19T20:13:30.849Z,2.16
2023-02-19T20:16:06.153Z,2.13
2023-02-19T20:18:34.560Z,2.08
2023-02-19T20:21:03.690Z,2.03
2023-02-19T20:23:31.853Z,1.99
2023-02-19T20:26:00.465Z,1.95
2023-02-19T20:28:29.468Z,1.91
2023-02-19T20:30:57.690Z,1.88
2023-02-19T20:33:26.183Z,1.85
2023-02-19T20:35:56.807Z,1.82
2023-02-19T20:38:25.092Z,1.79
2023-02-19T20:40:53.366Z,1.75
2023-02-19T20:43:22.895Z,1.73
2023-02-19T20:45:52.412Z,1.70
2023-02-19T20:48:21.296Z,1.69
2023-02-19T20:50:49.652Z,1.68
2023-02-19T20:53:18.786Z,1.67
2023-02-19T20:55:46.889Z,1.68
2023-02-19T20:58:15.491Z,1.67
2023-02-19T21:00:44.371Z,1.68
2023-02-19T21:03:14.086Z,1.69
2023-02-19T21:05:45.338Z,1.70
2023-02-19T21:08:17.231Z,1.71
2023-02-19T21:10:46.018Z,1.69
2023-02-19T21:13:18.806Z,1.68
2023-02-19T21:15:47.398Z,1.65
2023-02-19T21:18:16.556Z,1.63
2023-02-19T21:20:45.917Z,1.59
2023-02-19T21:23:14.321Z,1.57
2023-02-19T21:25:42.693Z,1.55
2023-02-19T21:28:11.267Z,1.55
2023-02-19T21:30:40.020Z,1.57
2023-02-19T21:33:08.963Z,1.62
2023-02-19T21:35:37.160Z,1.67
2023-02-19T21:38:05.426Z,1.73
2023-02-19T21:40:34.229Z,1.79
2023-02-19T21:43:02.629Z,1.84
2023-02-19T21:45:30.906Z,1.87
2023-02-19T21:47:59.175Z,1.88
2023-02-19T21:50:27.787Z,1.88
2023-02-19T21:52:56.715Z,1.87
2023-02-19T21:55:24.909Z,1.86
2023-02-19T21:57:57.804Z,1.85
2023-02-19T22:00:26.094Z,1.82
2023-02-19T22:02:54.359Z,1.78
2023-02-19T22:05:24.253Z,1.75
2023-02-19T22:07:55.147Z,1.72
2023-02-19T22:10:23.764Z,1.69
2023-02-19T22:12:52.409Z,1.66
2023-02-19T22:15:24.802Z,1.62
2023-02-19T22:17:53.731Z,1.59
2023-02-19T22:20:22.026Z,1.55
2023-02-19T22:22:51.059Z,1.52
2023-02-19T22:25:22.025Z,1.50
2023-02-19T22:27:50.732Z,1.48
2023-02-19T22:30:19.215Z,1.44
2023-02-19T22:32:47.547Z,1.40
2023-02-19T22:35:16.025Z,1.37
2023-02-19T22:37:44.389Z,1.33
2023-02-19T22:40:13.822Z,1.30
2023-02-19T22:42:43.763Z,1.27
2023-02-19T22:45:12.465Z,1.25
2023-02-19T22:47:42.088Z,1.23
2023-02-19T22:50:18.656Z,1.20
2023-02-19T22:52:49.959Z,1.19
2023-02-19T22:55:18.260Z,1.18
2023-02-19T22:57:46.447Z,1.17
2023-02-19T23:00:19.380Z,1.17
2023-02-19T23:02:49.095Z,1.18
2023-02-19T23:05:17.381Z,1.20
2023-02-19T23:07:45.773Z,1.23
2023-02-19T23:10:16.214Z,1.24
2023-02-19T23:12:45.840Z,1.25
2023-02-19T23:15:16.316Z,1.26
2023-02-19T23:17:44.983Z,1.27
2023-02-19T23:20:13.830Z,1.27
2023-02-19T23:22:43.734Z,1.27
2023-02-19T23:25:12.931Z,1.26
2023-02-19T23:27:41.647Z,1.25
2023-02-19T23:37:36.439Z,1.32
2023-02-19T23:40:06.184Z,1.32
2023-02-19T23:42:35.642Z,1.33
2023-02-19T23:45:04.424Z,1.31
2023-02-19T23:47:34.683Z,1.29
2023-02-19T23:50:02.850Z,1.26
2023-02-19T23:52:31.589Z,1.24
2023-02-19T23:54:59.834Z,1.22
2023-02-19T23:57:28.352Z,1.20
2023-02-19T23:59:56.639Z,1.18
